createdAt,value
2017-11-07T00:00:34.477Z,94.80
2017-11-07T00:03:02.469Z,94.64
2017-11-07T00:05:30.489Z,94.54
2017-11-07T00:07:58.401Z,94.62
2017-11-07T00:10:26.402Z,94.27
2017-11-07T00:12:54.341Z,94.39
2017-11-07T00:15:22.281Z,94.35
2017-11-07T00:17:50.324Z,94.97
2017-11-07T00:20:18.254Z,95.10
2017-11-07T00:22:46.157Z,95.14
2017-11-07T00:25:14.465Z,95.14
2017-11-07T00:27:42.410Z,95.25
2017-11-07T00:30:10.332Z,95.12
2017-11-07T00:32:38.237Z,94.84
2017-11-07T00:35:06.558Z,95.14
2017-11-07T00:37:34.520Z,95.12
2017-11-07T00:40:02.476Z,95.22
2017-11-07T00:42:30.416Z,95.52
2017-11-07T00:44:58.337Z,95.55
2017-11-07T00:47:26.246Z,95.56
2017-11-07T00:49:54.544Z,95.70
2017-11-07T00:52:22.478Z,95.72
2017-11-07T00:54:50.377Z,95.54
2017-11-07T00:57:18.310Z,95.62
2017-11-07T00:59:46.212Z,95.74
2017-11-07T01:02:14.140Z,95.48
2017-11-07T01:04:42.053Z,95.64
2017-11-07T01:07:10.078Z,96.11
2017-11-07T01:09:37.989Z,96.00
2017-11-07T01:12:05.910Z,95.79
2017-11-07T01:14:33.812Z,95.45
2017-11-07T01:17:02.124Z,95.33
2017-11-07T01:19:30.130Z,95.52
2017-11-07T01:21:58.099Z,95.67
2017-11-07T01:24:26.012Z,95.70
2017-11-07T01:26:53.993Z,95.81
2017-11-07T01:29:22.000Z,95.85
2017-11-07T01:31:49.904Z,96.03
2017-11-07T01:34:17.827Z,95.92
2017-11-07T01:36:45.756Z,95.99
2017-11-07T01:39:13.689Z,95.93
2017-11-07T01:41:41.605Z,95.60
2017-11-07T01:44:09.534Z,95.61
2017-11-07T01:46:37.840Z,95.54
2017-11-07T01:49:05.771Z,95.31
2017-11-07T01:51:34.083Z,95.39
2017-11-07T01:54:02.008Z,95.03
2017-11-07T01:56:29.919Z,94.82
2017-11-07T01:58:57.822Z,94.69
2017-11-07T02:01:25.729Z,94.63
2017-11-07T02:03:54.023Z,94.46
2017-11-07T02:06:21.940Z,94.56
2017-11-07T02:08:49.858Z,94.88
2017-11-07T02:11:17.775Z,95.01
2017-11-07T02:13:45.678Z,95.24
2017-11-07T02:16:13.973Z,95.31
2017-11-07T02:18:41.898Z,95.06
2017-11-07T02:21:09.809Z,94.99
2017-11-07T02:23:37.724Z,95.16
2017-11-07T02:26:05.640Z,95.45
2017-11-07T02:28:33.575Z,95.13
2017-11-07T02:31:01.541Z,95.58
2017-11-07T02:33:29.447Z,95.52
2017-11-07T02:35:57.381Z,95.22
2017-11-07T02:38:25.297Z,95.18
2017-11-07T02:40:53.216Z,95.52
2017-11-07T02:43:21.186Z,95.38
2017-11-07T02:45:49.097Z,95.37
2017-11-07T02:48:17.016Z,95.51
2017-11-07T02:50:44.928Z,95.35
2017-11-07T02:53:12.856Z,94.88
2017-11-07T02:55:40.826Z,94.73
2017-11-07T02:58:08.732Z,94.61
2017-11-07T03:00:36.669Z,94.52
2017-11-07T03:03:04.572Z,94.18
2017-11-07T03:05:32.502Z,94.39
2017-11-07T03:08:00.411Z,94.33
2017-11-07T03:10:28.442Z,94.10
2017-11-07T03:12:56.464Z,94.22
2017-11-07T03:15:24.384Z,93.86
2017-11-07T03:17:52.758Z,93.70
2017-11-07T03:20:20.663Z,93.92
2017-11-07T03:22:48.567Z,93.69
2017-11-07T03:25:16.487Z,93.67
2017-11-07T03:27:44.400Z,93.66
2017-11-07T03:30:12.391Z,93.47
2017-11-07T03:32:40.349Z,93.53
2017-11-07T03:35:08.334Z,93.33
2017-11-07T03:37:36.292Z,93.21
2017-11-07T03:40:04.269Z,93.09
2017-11-07T03:42:32.217Z,92.82
2017-11-07T03:45:00.154Z,92.52
2017-11-07T03:47:28.082Z,92.98
2017-11-07T03:49:55.984Z,93.39
2017-11-07T03:52:24.000Z,93.75
2017-11-07T03:54:51.908Z,93.67
2017-11-07T03:57:19.855Z,94.00
2017-11-07T03:59:47.759Z,94.15
2017-11-07T04:02:15.800Z,94.49
2017-11-07T04:04:44.161Z,94.40
2017-11-07T04:07:12.077Z,94.52
2017-11-07T04:09:39.995Z,93.99
2017-11-07T04:12:07.900Z,94.20
2017-11-07T04:14:35.820Z,94.54
2017-11-07T04:17:03.796Z,94.78
2017-11-07T04:19:31.688Z,94.51
2017-11-07T04:21:59.618Z,94.49
2017-11-07T04:24:27.537Z,94.61
2017-11-07T04:26:55.474Z,94.51
2017-11-07T04:29:23.369Z,94.72
2017-11-07T04:31:51.685Z,94.40
2017-11-07T04:34:19.593Z,94.47
2017-11-07T04:36:47.501Z,94.76
2017-11-07T04:39:15.404Z,95.14
2017-11-07T04:41:43.439Z,95.02
2017-11-07T04:44:11.449Z,95.18
2017-11-07T04:46:39.354Z,95.28
2017-11-07T04:49:07.693Z,95.28
2017-11-07T04:51:35.699Z,95.24
2017-11-07T04:54:03.993Z,95.29
2017-11-07T04:56:31.908Z,95.59
2017-11-07T04:58:59.880Z,95.71
2017-11-07T05:01:27.802Z,95.43
2017-11-07T05:03:55.695Z,95.81
2017-11-07T05:06:23.680Z,95.25
2017-11-07T05:08:51.588Z,95.01
2017-11-07T05:11:19.890Z,95.00
2017-11-07T05:13:47.792Z,94.89
2017-11-07T05:16:15.768Z,95.82
2017-11-07T05:18:43.667Z,95.98
2017-11-07T05:21:12.008Z,96.22
2017-11-07T05:23:39.916Z,96.53
2017-11-07T05:26:08.244Z,96.72
2017-11-07T05:28:36.149Z,96.62
2017-11-07T05:31:04.444Z,96.32
2017-11-07T05:33:32.422Z,96.50
2017-11-07T05:36:00.335Z,96.92
2017-11-07T05:38:28.231Z,96.65
2017-11-07T05:40:56.545Z,96.81
2017-11-07T05:43:24.451Z,96.79
2017-11-07T05:45:52.360Z,96.97
2017-11-07T05:48:20.288Z,97.09
2017-11-07T05:50:48.252Z,97.02
2017-11-07T05:53:17.034Z,96.98
2017-11-07T05:55:45.012Z,96.91
2017-11-07T05:58:12.928Z,96.68
2017-11-07T06:00:40.820Z,96.96
2017-11-07T06:03:08.735Z,96.93
2017-11-07T06:05:37.055Z,96.80
2017-11-07T06:08:04.984Z,96.71
2017-11-07T06:10:32.884Z,96.48
2017-11-07T06:13:00.784Z,96.26
2017-11-07T06:15:28.695Z,96.12
2017-11-07T06:17:57.033Z,96.10
2017-11-07T06:20:25.017Z,95.94
2017-11-07T06:22:52.924Z,96.05
2017-11-07T06:25:20.845Z,96.18
2017-11-07T06:27:48.748Z,95.79
2017-11-07T06:30:17.068Z,95.81
2017-11-07T06:32:44.973Z,95.87
2017-11-07T06:35:12.923Z,96.01
2017-11-07T06:37:40.825Z,96.06
2017-11-07T06:40:09.132Z,95.91
2017-11-07T06:42:37.034Z,95.67
2017-11-07T06:45:04.961Z,95.74
2017-11-07T06:47:33.181Z,95.53
2017-11-07T06:50:01.103Z,95.96
2017-11-07T06:52:29.009Z,97.87
2017-11-07T06:54:57.005Z,97.77
2017-11-07T06:57:24.961Z,90.94
2017-11-07T06:59:52.924Z,88.79
2017-11-07T07:02:20.847Z,86.22
2017-11-07T07:04:48.748Z,81.70
2017-11-07T07:07:16.839Z,78.24
2017-11-07T07:09:44.809Z,74.32
2017-11-07T07:12:12.738Z,72.28
2017-11-07T07:14:40.664Z,70.41
2017-11-07T07:17:08.973Z,66.73
2017-11-07T07:19:36.942Z,65.24
2017-11-07T07:22:04.892Z,62.96
2017-11-07T07:24:32.841Z,61.74
2017-11-07T07:27:01.164Z,56.16
2017-11-07T07:29:29.130Z,55.88
2017-11-07T07:31:57.065Z,55.48
2017-11-07T07:34:25.380Z,55.38
2017-11-07T07:36:53.309Z,55.01
2017-11-07T07:39:21.620Z,56.01
2017-11-07T07:41:49.552Z,57.72
2017-11-07T07:44:17.844Z,55.85
2017-11-07T07:46:45.788Z,55.42
2017-11-07T07:49:13.710Z,53.77
2017-11-07T07:51:41.636Z,53.94
2017-11-07T07:54:09.955Z,54.33
2017-11-07T07:56:37.883Z,51.97
2017-11-07T07:59:05.824Z,51.94
2017-11-07T08:01:33.736Z,49.44
2017-11-07T08:04:01.648Z,47.46
2017-11-07T08:06:29.560Z,49.01
2017-11-07T08:08:57.880Z,47.22
2017-11-07T08:11:25.801Z,47.18
2017-11-07T08:13:54.124Z,48.77
2017-11-07T08:16:22.044Z,50.59
2017-11-07T08:18:50.385Z,50.19
2017-11-07T08:21:18.316Z,51.20
2017-11-07T08:23:46.210Z,50.01
2017-11-07T08:26:14.162Z,49.85
2017-11-07T08:28:42.135Z,50.23
2017-11-07T08:31:10.060Z,50.56
2017-11-07T08:33:38.407Z,51.67
2017-11-07T08:36:06.324Z,51.23
2017-11-07T08:38:34.261Z,48.54
2017-11-07T08:41:02.278Z,49.21
2017-11-07T08:43:30.300Z,50.57
2017-11-07T08:45:58.218Z,49.85
2017-11-07T08:48:26.282Z,47.42
2017-11-07T08:50:54.205Z,49.50
2017-11-07T08:53:22.125Z,49.95
2017-11-07T08:55:50.131Z,52.06
2017-11-07T08:58:18.044Z,52.25
2017-11-07T09:00:45.957Z,51.14
2017-11-07T09:03:13.868Z,50.08
2017-11-07T09:05:42.219Z,49.89
2017-11-07T09:08:10.186Z,49.78
2017-11-07T09:10:38.101Z,49.40
2017-11-07T09:13:06.025Z,50.51
2017-11-07T09:15:33.957Z,52.72
2017-11-07T09:18:01.880Z,52.36
2017-11-07T09:20:30.185Z,52.43
2017-11-07T09:22:58.118Z,51.05
2017-11-07T09:25:26.040Z,50.00
2017-11-07T09:27:53.949Z,51.25
2017-11-07T09:30:21.873Z,51.00
2017-11-07T09:32:49.784Z,52.26
2017-11-07T09:35:17.692Z,53.05
2017-11-07T09:37:45.709Z,52.62
2017-11-07T09:40:13.607Z,49.73
2017-11-07T09:42:41.529Z,49.92
2017-11-07T09:45:09.439Z,50.83
2017-11-07T09:47:37.740Z,51.47
2017-11-07T09:50:05.687Z,52.24
2017-11-07T09:52:34.042Z,52.60
2017-11-07T09:55:01.964Z,53.90
2017-11-07T09:57:30.760Z,55.80
2017-11-07T09:59:58.664Z,54.85
2017-11-07T10:02:26.640Z,55.03
2017-11-07T10:04:54.594Z,55.66
2017-11-07T10:07:22.504Z,56.17
2017-11-07T10:09:50.803Z,57.89
2017-11-07T10:12:19.177Z,59.90
2017-11-07T10:14:47.393Z,60.25
2017-11-07T10:17:15.627Z,58.96
2017-11-07T10:19:44.518Z,58.38
2017-11-07T10:22:12.694Z,58.15
2017-11-07T10:24:41.012Z,59.93
2017-11-07T10:27:09.245Z,60.51
2017-11-07T10:29:37.448Z,61.42
2017-11-07T10:32:05.698Z,63.20
2017-11-07T10:34:34.996Z,64.26
2017-11-07T10:37:03.017Z,64.11
2017-11-07T10:39:30.999Z,63.86
2017-11-07T10:41:59.386Z,63.11
2017-11-07T10:44:27.742Z,62.86
2017-11-07T10:46:56.072Z,62.44
2017-11-07T10:49:24.100Z,64.10
2017-11-07T10:51:52.730Z,64.66
2017-11-07T10:54:20.795Z,65.69
2017-11-07T10:56:48.824Z,65.30
2017-11-07T10:59:16.779Z,64.54
2017-11-07T11:01:44.908Z,66.69
2017-11-07T11:04:13.082Z,67.12
2017-11-07T11:06:41.304Z,68.21
2017-11-07T11:09:09.584Z,69.31
2017-11-07T11:11:38.562Z,69.83
2017-11-07T11:14:07.514Z,70.06
2017-11-07T11:16:35.733Z,70.97
2017-11-07T11:19:03.885Z,71.47
2017-11-07T11:21:32.203Z,72.08
2017-11-07T11:24:00.602Z,72.41
2017-11-07T11:26:28.907Z,72.24
2017-11-07T11:28:57.052Z,72.93
2017-11-07T11:31:25.298Z,72.83
2017-11-07T11:33:54.004Z,73.00
2017-11-07T11:36:22.212Z,72.81
2017-11-07T11:38:50.422Z,73.63
2017-11-07T11:41:18.660Z,73.58
2017-11-07T11:43:46.764Z,73.48
2017-11-07T11:46:14.901Z,72.90
2017-11-07T11:48:43.740Z,72.72
2017-11-07T11:51:11.864Z,72.37
2017-11-07T11:53:40.038Z,71.73
2017-11-07T11:56:07.976Z,71.45
2017-11-07T11:58:35.900Z,71.52
2017-11-07T12:01:03.814Z,70.87
2017-11-07T12:03:32.104Z,70.97
2017-11-07T12:06:00.020Z,70.83
2017-11-07T12:08:27.924Z,70.29
2017-11-07T12:10:56.229Z,69.91
2017-11-07T12:13:24.140Z,69.96
2017-11-07T12:15:52.067Z,70.21
2017-11-07T12:18:19.965Z,69.90
2017-11-07T12:20:47.891Z,69.45
2017-11-07T12:23:15.797Z,69.13
2017-11-07T12:25:43.711Z,69.44
2017-11-07T12:28:12.004Z,69.84
2017-11-07T12:30:39.916Z,70.00
2017-11-07T12:33:07.867Z,70.19
2017-11-07T12:35:35.786Z,70.86
2017-11-07T12:38:04.095Z,70.85
2017-11-07T12:40:32.033Z,71.15
2017-11-07T12:43:00.346Z,71.41
2017-11-07T12:45:28.257Z,71.35
2017-11-07T12:47:56.188Z,71.52
2017-11-07T12:50:35.892Z,71.65
2017-11-07T12:53:04.197Z,71.36
2017-11-07T12:55:32.100Z,71.14
2017-11-07T12:58:00.014Z,71.43
2017-11-07T13:00:28.392Z,70.75
2017-11-07T13:02:56.688Z,71.21
2017-11-07T13:05:24.601Z,71.53
2017-11-07T13:07:52.513Z,71.48
2017-11-07T13:10:20.418Z,71.43
2017-11-07T13:12:48.348Z,71.99
2017-11-07T13:15:16.268Z,73.00
2017-11-07T13:17:44.181Z,73.15
2017-11-07T13:20:12.490Z,73.28
2017-11-07T13:22:40.388Z,73.40
2017-11-07T13:25:08.301Z,73.46
2017-11-07T13:27:36.220Z,73.62
2017-11-07T13:30:04.141Z,74.46
2017-11-07T13:32:32.057Z,74.78
2017-11-07T13:34:59.968Z,74.64
2017-11-07T13:37:27.869Z,74.33
2017-11-07T13:39:55.783Z,74.80
2017-11-07T13:42:23.679Z,74.98
2017-11-07T13:44:51.571Z,75.28
2017-11-07T13:47:19.492Z,75.57
2017-11-07T13:49:47.797Z,75.19
2017-11-07T13:52:15.697Z,75.53
2017-11-07T13:54:43.601Z,75.87
2017-11-07T13:57:12.066Z,76.35
2017-11-07T13:59:40.024Z,76.12
2017-11-07T14:02:07.996Z,76.21
2017-11-07T14:04:36.316Z,76.22
2017-11-07T14:07:04.253Z,76.21
2017-11-07T14:09:32.201Z,75.36
2017-11-07T14:12:00.182Z,76.16
2017-11-07T14:14:28.156Z,76.59
2017-11-07T14:16:56.123Z,76.65
2017-11-07T14:19:24.030Z,77.25
2017-11-07T14:21:51.960Z,77.41
2017-11-07T14:24:19.868Z,77.25
2017-11-07T14:26:47.792Z,77.21
2017-11-07T14:29:15.712Z,77.41
2017-11-07T14:31:43.643Z,76.94
2017-11-07T14:34:12.013Z,76.93
2017-11-07T14:36:39.937Z,77.32
2017-11-07T14:39:07.838Z,77.42
2017-11-07T14:41:35.832Z,77.70
2017-11-07T14:44:04.188Z,77.76
2017-11-07T14:46:32.527Z,77.79
2017-11-07T14:49:00.420Z,78.02
2017-11-07T14:51:28.503Z,78.28
2017-11-07T14:53:56.467Z,78.53
2017-11-07T14:56:24.407Z,78.55
2017-11-07T14:58:52.304Z,78.34
2017-11-07T15:01:20.227Z,78.86
2017-11-07T15:03:48.135Z,78.87
2017-11-07T15:06:16.055Z,79.26
2017-11-07T15:08:44.141Z,79.05
2017-11-07T15:11:12.053Z,79.27
2017-11-07T15:13:39.996Z,79.48
2017-11-07T15:16:07.905Z,79.48
2017-11-07T15:18:36.195Z,80.10
2017-11-07T15:21:04.491Z,79.61
2017-11-07T15:23:32.396Z,79.65
2017-11-07T15:26:00.379Z,79.40
2017-11-07T15:28:28.280Z,79.70
2017-11-07T15:30:56.179Z,79.80
2017-11-07T15:33:24.077Z,79.83
2017-11-07T15:35:52.063Z,79.87
2017-11-07T15:38:19.950Z,79.79
2017-11-07T15:40:47.892Z,79.44
2017-11-07T15:43:15.796Z,79.81
2017-11-07T15:45:43.702Z,80.10
2017-11-07T15:48:11.598Z,79.98
2017-11-07T15:50:39.955Z,79.93
2017-11-07T15:53:07.855Z,80.03
2017-11-07T15:55:36.213Z,80.24
2017-11-07T15:58:04.150Z,80.25
2017-11-07T16:00:32.149Z,80.22
2017-11-07T16:03:00.051Z,80.43
2017-11-07T16:05:28.956Z,80.31
2017-11-07T16:07:56.862Z,80.84
2017-11-07T16:10:24.803Z,80.67
2017-11-07T16:12:52.865Z,81.02
2017-11-07T16:15:20.775Z,80.80
2017-11-07T16:17:48.667Z,81.02
2017-11-07T16:20:17.012Z,80.78
2017-11-07T16:22:44.917Z,80.99
2017-11-07T16:25:12.911Z,81.22
2017-11-07T16:27:40.839Z,81.08
2017-11-07T16:30:08.788Z,81.10
2017-11-07T16:32:36.719Z,81.37
2017-11-07T16:35:04.622Z,81.58
2017-11-07T16:37:32.559Z,81.69
2017-11-07T16:40:00.468Z,81.58
2017-11-07T16:42:28.494Z,81.46
2017-11-07T16:44:56.400Z,81.54
2017-11-07T16:47:24.317Z,81.65
2017-11-07T16:49:52.219Z,81.79
2017-11-07T16:52:20.135Z,81.88
2017-11-07T16:54:48.436Z,81.97
2017-11-07T16:57:16.336Z,81.72
2017-11-07T16:59:44.247Z,81.53
2017-11-07T17:02:12.557Z,81.87
2017-11-07T17:04:40.451Z,82.03
2017-11-07T17:07:08.582Z,82.31
2017-11-07T17:09:36.797Z,82.46
2017-11-07T17:12:05.057Z,82.31
2017-11-07T17:14:33.425Z,82.73
2017-11-07T17:17:02.213Z,82.73
2017-11-07T17:19:32.299Z,83.13
2017-11-07T17:22:01.126Z,82.89
2017-11-07T17:24:29.421Z,83.18
2017-11-07T17:26:57.573Z,82.97
2017-11-07T17:29:25.951Z,83.07
2017-11-07T17:31:54.157Z,82.85
2017-11-07T17:34:22.405Z,83.06
2017-11-07T17:36:50.425Z,83.02
2017-11-07T17:39:18.964Z,82.78
2017-11-07T17:41:47.435Z,82.70
2017-11-07T17:44:15.654Z,82.77
2017-11-07T17:46:43.918Z,83.12
2017-11-07T17:49:12.161Z,82.89
2017-11-07T17:51:40.438Z,83.27
2017-11-07T17:54:08.770Z,83.40
2017-11-07T17:56:38.330Z,83.71
2017-11-07T17:59:06.494Z,83.50
2017-11-07T18:01:34.672Z,83.22
2017-11-07T18:04:02.907Z,83.43
2017-11-07T18:06:31.098Z,83.74
2017-11-07T18:08:59.289Z,83.87
2017-11-07T18:11:27.314Z,84.20
2017-11-07T18:13:55.641Z,84.06
2017-11-07T18:16:23.653Z,84.09
2017-11-07T18:18:51.556Z,83.96
2017-11-07T18:21:19.901Z,83.85
2017-11-07T18:23:47.881Z,84.14
2017-11-07T18:26:15.797Z,84.54
2017-11-07T18:28:43.812Z,84.45
2017-11-07T18:31:11.731Z,84.72
2017-11-07T18:33:39.643Z,85.04
2017-11-07T18:36:07.568Z,85.34
2017-11-07T18:38:35.533Z,85.02
2017-11-07T18:41:03.444Z,85.16
2017-11-07T18:43:31.420Z,85.33
2017-11-07T18:45:59.323Z,85.40
2017-11-07T18:48:27.249Z,85.46
2017-11-07T18:50:55.165Z,85.63
2017-11-07T18:53:23.069Z,85.72
2017-11-07T18:55:50.979Z,85.45
2017-11-07T18:58:19.272Z,85.39
2017-11-07T19:00:47.200Z,85.66
2017-11-07T19:03:15.095Z,86.08
2017-11-07T19:05:43.094Z,86.13
2017-11-07T19:08:11.011Z,86.30
2017-11-07T19:10:38.922Z,85.93
2017-11-07T19:13:06.828Z,85.99
2017-11-07T19:15:34.732Z,86.14
2017-11-07T19:18:03.040Z,86.26
2017-11-07T19:20:31.016Z,86.31
2017-11-07T19:22:58.915Z,86.00
2017-11-07T19:25:26.812Z,85.78
2017-11-07T19:27:55.108Z,86.29
2017-11-07T19:30:23.048Z,86.39
2017-11-07T19:32:50.953Z,86.59
2017-11-07T19:35:18.888Z,86.47
2017-11-07T19:37:47.257Z,86.34
2017-11-07T19:40:15.158Z,86.68
2017-11-07T19:42:43.080Z,86.15
2017-11-07T19:45:10.996Z,86.97
2017-11-07T19:47:38.936Z,87.09
2017-11-07T19:50:07.264Z,87.18
2017-11-07T19:52:35.174Z,87.36
2017-11-07T19:55:03.063Z,87.48
2017-11-07T19:57:31.365Z,87.37
2017-11-07T19:59:59.289Z,87.40
2017-11-07T20:02:27.314Z,87.41
2017-11-07T20:04:55.330Z,87.45
2017-11-07T20:07:23.244Z,87.77
2017-11-07T20:09:51.136Z,88.17
2017-11-07T20:12:19.112Z,88.08
2017-11-07T20:14:47.021Z,88.12
2017-11-07T20:17:15.330Z,87.81
2017-11-07T20:19:43.238Z,87.86
2017-11-07T20:22:11.150Z,87.67
2017-11-07T20:24:39.048Z,87.24
2017-11-07T20:27:07.035Z,87.56
2017-11-07T20:29:34.950Z,87.66
2017-11-07T20:32:02.978Z,87.46
2017-11-07T20:34:30.883Z,87.77
2017-11-07T20:36:58.792Z,87.88
2017-11-07T20:39:26.772Z,88.42
2017-11-07T20:41:54.757Z,88.52
2017-11-07T20:44:22.686Z,88.36
2017-11-07T20:46:50.596Z,88.44
2017-11-07T20:49:18.507Z,88.90
2017-11-07T20:51:46.412Z,88.60
2017-11-07T20:54:14.344Z,88.62
2017-11-07T20:56:42.247Z,88.98
2017-11-07T20:59:10.150Z,89.01
2017-11-07T21:01:38.464Z,88.72
2017-11-07T21:04:06.380Z,88.40
2017-11-07T21:06:34.311Z,88.53
2017-11-07T21:09:02.241Z,88.62
2017-11-07T21:11:30.554Z,88.62
2017-11-07T21:13:58.482Z,88.81
2017-11-07T21:16:26.877Z,89.04
2017-11-07T21:18:54.778Z,89.28
2017-11-07T21:21:25.527Z,89.04
2017-11-07T21:23:53.437Z,88.66
2017-11-07T21:26:21.360Z,88.98
2017-11-07T21:28:49.435Z,89.09
2017-11-07T21:31:17.345Z,89.11
2017-11-07T21:33:45.239Z,89.29
2017-11-07T21:36:13.177Z,88.94
2017-11-07T21:38:41.491Z,89.18
2017-11-07T21:41:09.488Z,89.28
2017-11-07T21:43:37.448Z,89.55
2017-11-07T21:46:05.361Z,89.47
2017-11-07T21:48:33.713Z,89.65
2017-11-07T21:51:01.640Z,90.02
2017-11-07T21:53:29.641Z,89.85
2017-11-07T21:55:57.615Z,89.63
2017-11-07T21:58:25.520Z,89.65
2017-11-07T22:00:53.428Z,89.28
2017-11-07T22:03:21.328Z,89.17
2017-11-07T22:05:49.255Z,89.56
2017-11-07T22:08:17.163Z,89.71
2017-11-07T22:10:45.715Z,89.51
2017-11-07T22:13:13.624Z,89.60
2017-11-07T22:15:41.957Z,89.59
2017-11-07T22:18:10.754Z,89.59
2017-11-07T22:20:39.585Z,89.74
2017-11-07T22:23:13.481Z,89.58
2017-11-07T22:25:43.592Z,89.25
2017-11-07T22:28:11.494Z,89.51
2017-11-07T22:30:39.401Z,89.71
2017-11-07T22:33:07.300Z,89.80
2017-11-07T22:35:35.612Z,89.91
2017-11-07T22:38:03.518Z,89.63
2017-11-07T22:40:31.488Z,89.50
2017-11-07T22:42:59.420Z,89.49
2017-11-07T22:45:27.386Z,89.33
2017-11-07T22:47:55.300Z,89.96
2017-11-07T22:50:23.208Z,89.96
2017-11-07T22:52:51.140Z,90.13
2017-11-07T22:55:19.038Z,90.21
2017-11-07T22:57:47.391Z,90.33
2017-11-07T23:00:15.301Z,90.49
2017-11-07T23:02:43.217Z,90.71
2017-11-07T23:05:11.155Z,90.58
2017-11-07T23:07:39.063Z,90.66
2017-11-07T23:10:06.981Z,90.46
2017-11-07T23:12:34.892Z,90.68
2017-11-07T23:15:02.795Z,90.88
2017-11-07T23:17:30.710Z,90.96
2017-11-07T23:19:58.617Z,90.87
2017-11-07T23:22:26.977Z,91.14
2017-11-07T23:24:54.945Z,91.42
2017-11-07T23:27:22.852Z,91.67
2017-11-07T23:29:50.772Z,91.85
2017-11-07T23:32:18.676Z,91.81
2017-11-07T23:34:47.007Z,92.24
2017-11-07T23:37:14.895Z,92.56
2017-11-07T23:39:42.854Z,92.37
2017-11-07T23:42:10.748Z,92.60
2017-11-07T23:44:39.082Z,92.76
2017-11-07T23:47:06.989Z,92.69
2017-11-07T23:49:35.291Z,92.85
2017-11-07T23:52:03.193Z,92.77
2017-11-07T23:54:31.112Z,92.61
2017-11-07T23:56:59.401Z,92.80
2017-11-07T23:59:27.304Z,92.73
